sensor_id;sensor_type;location;lat;lon;timestamp;P1;durP1;ratioP1;P2;durP2;ratioP2
20042;SDS011;10182;52.896;6.496;2023-07-24T00:04:40;12.57;;;8.43;;
20042;SDS011;10182;52.896;6.496;2023-07-24T00:09:41;8.93;;;7.70;;
20042;SDS011;10182;52.896;6.496;2023-07-24T00:14:43;11.83;;;7.93;;
20042;SDS011;10182;52.896;6.496;2023-07-24T00:19:46;11.20;;;8.70;;
20042;SDS011;10182;52.896;6.496;2023-07-24T00:24:48;10.07;;;8.97;;
20042;SDS011;10182;52.896;6.496;2023-07-24T00:29:49;14.13;;;9.20;;
20042;SDS011;10182;52.896;6.496;2023-07-24T00:34:52;14.03;;;10.27;;
20042;SDS011;10182;52.896;6.496;2023-07-24T00:39:54;13.17;;;11.77;;
20042;SDS011;10182;52.896;6.496;2023-07-24T00:44:56;15.27;;;12.60;;
20042;SDS011;10182;52.896;6.496;2023-07-24T00:49:59;17.63;;;13.60;;
20042;SDS011;10182;52.896;6.496;2023-07-24T00:55:00;16.87;;;15.23;;
20042;SDS011;10182;52.896;6.496;2023-07-24T01:00:03;17.77;;;15.90;;
20042;SDS011;10182;52.896;6.496;2023-07-24T01:05:06;19.13;;;16.83;;
20042;SDS011;10182;52.896;6.496;2023-07-24T01:10:09;19.07;;;17.20;;
20042;SDS011;10182;52.896;6.496;2023-07-24T01:15:12;19.23;;;16.80;;
20042;SDS011;10182;52.896;6.496;2023-07-24T01:20:19;17.63;;;15.83;;
20042;SDS011;10182;52.896;6.496;2023-07-24T01:25:23;16.57;;;14.87;;
20042;SDS011;10182;52.896;6.496;2023-07-24T01:30:33;16.57;;;14.87;;
20042;SDS011;10182;52.896;6.496;2023-07-24T01:35:34;15.73;;;14.20;;
20042;SDS011;10182;52.896;6.496;2023-07-24T01:40:39;15.37;;;13.77;;
20042;SDS011;10182;52.896;6.496;2023-07-24T01:45:43;16.90;;;13.60;;
20042;SDS011;10182;52.896;6.496;2023-07-24T01:50:44;13.40;;;12.10;;
20042;SDS011;10182;52.896;6.496;2023-07-24T01:55:46;14.53;;;12.80;;
20042;SDS011;10182;52.896;6.496;2023-07-24T02:00:49;13.60;;;12.20;;
20042;SDS011;10182;52.896;6.496;2023-07-24T02:05:51;14.77;;;13.33;;
20042;SDS011;10182;52.896;6.496;2023-07-24T02:10:53;14.27;;;12.80;;
20042;SDS011;10182;52.896;6.496;2023-07-24T02:15:56;14.70;;;13.07;;
20042;SDS011;10182;52.896;6.496;2023-07-24T02:20:57;13.07;;;11.70;;
20042;SDS011;10182;52.896;6.496;2023-07-24T02:25:59;14.90;;;13.40;;
20042;SDS011;10182;52.896;6.496;2023-07-24T02:31:02;14.37;;;12.97;;
20042;SDS011;10182;52.896;6.496;2023-07-24T02:36:04;14.37;;;12.87;;
20042;SDS011;10182;52.896;6.496;2023-07-24T02:41:05;14.43;;;12.93;;
20042;SDS011;10182;52.896;6.496;2023-07-24T02:46:08;14.97;;;13.57;;
20042;SDS011;10182;52.896;6.496;2023-07-24T02:51:10;13.30;;;12.00;;
20042;SDS011;10182;52.896;6.496;2023-07-24T02:56:12;15.47;;;13.90;;
20042;SDS011;10182;52.896;6.496;2023-07-24T03:01:15;14.60;;;13.20;;
20042;SDS011;10182;52.896;6.496;2023-07-24T03:06:16;13.60;;;12.30;;
20042;SDS011;10182;52.896;6.496;2023-07-24T03:11:18;16.70;;;13.20;;
20042;SDS011;10182;52.896;6.496;2023-07-24T03:16:21;14.73;;;13.20;;
20042;SDS011;10182;52.896;6.496;2023-07-24T03:21:23;14.83;;;13.33;;
20042;SDS011;10182;52.896;6.496;2023-07-24T03:26:25;15.17;;;13.77;;
20042;SDS011;10182;52.896;6.496;2023-07-24T03:31:28;15.50;;;13.90;;
20042;SDS011;10182;52.896;6.496;2023-07-24T03:36:29;13.63;;;12.33;;
20042;SDS011;10182;52.896;6.496;2023-07-24T03:41:31;12.57;;;11.37;;
20042;SDS011;10182;52.896;6.496;2023-07-24T03:46:34;12.83;;;11.70;;
20042;SDS011;10182;52.896;6.496;2023-07-24T03:51:36;13.70;;;12.33;;
20042;SDS011;10182;52.896;6.496;2023-07-24T03:56:37;14.00;;;12.00;;
20042;SDS011;10182;52.896;6.496;2023-07-24T04:01:40;14.47;;;12.80;;
20042;SDS011;10182;52.896;6.496;2023-07-24T04:06:42;13.93;;;12.47;;
20042;SDS011;10182;52.896;6.496;2023-07-24T04:11:44;15.20;;;13.67;;
20042;SDS011;10182;52.896;6.496;2023-07-24T04:16:47;14.63;;;13.13;;
20042;SDS011;10182;52.896;6.496;2023-07-24T04:21:49;14.97;;;13.23;;
20042;SDS011;10182;52.896;6.496;2023-07-24T04:26:50;13.83;;;12.33;;
20042;SDS011;10182;52.896;6.496;2023-07-24T04:31:53;14.97;;;13.47;;
20042;SDS011;10182;52.896;6.496;2023-07-24T04:36:55;15.43;;;13.93;;
20042;SDS011;10182;52.896;6.496;2023-07-24T04:41:57;14.93;;;13.43;;
20042;SDS011;10182;52.896;6.496;2023-07-24T04:47:00;13.57;;;12.03;;
20042;SDS011;10182;52.896;6.496;2023-07-24T04:52:02;15.50;;;13.13;;
20042;SDS011;10182;52.896;6.496;2023-07-24T04:57:05;14.67;;;13.20;;
20042;SDS011;10182;52.896;6.496;2023-07-24T05:02:08;15.83;;;14.23;;
20042;SDS011;10182;52.896;6.496;2023-07-24T05:07:09;15.83;;;14.33;;
20042;SDS011;10182;52.896;6.496;2023-07-24T05:12:11;15.97;;;14.23;;
20042;SDS011;10182;52.896;6.496;2023-07-24T05:17:14;16.10;;;14.13;;
20042;SDS011;10182;52.896;6.496;2023-07-24T05:22:16;15.33;;;13.53;;
20042;SDS011;10182;52.896;6.496;2023-07-24T05:27:17;16.77;;;14.97;;
20042;SDS011;10182;52.896;6.496;2023-07-24T05:32:20;14.77;;;13.30;;
20042;SDS011;10182;52.896;6.496;2023-07-24T05:37:22;15.53;;;13.40;;
20042;SDS011;10182;52.896;6.496;2023-07-24T05:42:24;16.00;;;14.33;;
20042;SDS011;10182;52.896;6.496;2023-07-24T05:47:27;15.40;;;13.90;;
20042;SDS011;10182;52.896;6.496;2023-07-24T05:52:29;16.50;;;14.37;;
20042;SDS011;10182;52.896;6.496;2023-07-24T05:57:30;16.23;;;14.53;;
20042;SDS011;10182;52.896;6.496;2023-07-24T06:02:33;15.00;;;13.43;;
20042;SDS011;10182;52.896;6.496;2023-07-24T06:07:35;14.97;;;13.57;;
20042;SDS011;10182;52.896;6.496;2023-07-24T06:12:37;15.30;;;13.80;;
20042;SDS011;10182;52.896;6.496;2023-07-24T06:17:40;15.37;;;13.77;;
20042;SDS011;10182;52.896;6.496;2023-07-24T06:22:41;16.37;;;13.60;;
20042;SDS011;10182;52.896;6.496;2023-07-24T06:27:43;14.53;;;12.93;;
20042;SDS011;10182;52.896;6.496;2023-07-24T06:32:46;15.23;;;12.37;;
20042;SDS011;10182;52.896;6.496;2023-07-24T06:37:48;17.07;;;12.43;;
20042;SDS011;10182;52.896;6.496;2023-07-24T06:42:49;14.27;;;11.63;;
20042;SDS011;10182;52.896;6.496;2023-07-24T06:47:52;14.07;;;12.33;;
20042;SDS011;10182;52.896;6.496;2023-07-24T06:52:54;16.60;;;11.33;;
20042;SDS011;10182;52.896;6.496;2023-07-24T06:57:59;14.30;;;11.90;;
20042;SDS011;10182;52.896;6.496;2023-07-24T07:03:02;16.37;;;12.40;;
20042;SDS011;10182;52.896;6.496;2023-07-24T07:08:04;15.27;;;12.07;;
20042;SDS011;10182;52.896;6.496;2023-07-24T07:13:05;14.47;;;12.97;;
20042;SDS011;10182;52.896;6.496;2023-07-24T07:18:08;13.47;;;12.10;;
20042;SDS011;10182;52.896;6.496;2023-07-24T07:23:10;17.23;;;12.97;;
20042;SDS011;10182;52.896;6.496;2023-07-24T07:28:12;16.77;;;12.63;;
20042;SDS011;10182;52.896;6.496;2023-07-24T07:33:15;17.37;;;11.47;;
20042;SDS011;10182;52.896;6.496;2023-07-24T07:38:17;17.93;;;12.13;;
20042;SDS011;10182;52.896;6.496;2023-07-24T07:43:19;12.87;;;11.47;;
20042;SDS011;10182;52.896;6.496;2023-07-24T07:48:22;15.17;;;11.57;;
20042;SDS011;10182;52.896;6.496;2023-07-24T07:53:24;13.93;;;10.87;;
20042;SDS011;10182;52.896;6.496;2023-07-24T07:58:26;11.43;;;10.30;;
20042;SDS011;10182;52.896;6.496;2023-07-24T08:03:28;13.43;;;9.67;;
20042;SDS011;10182;52.896;6.496;2023-07-24T08:08:30;19.23;;;9.60;;
20042;SDS011;10182;52.896;6.496;2023-07-24T08:13:32;15.00;;;9.10;;
20042;SDS011;10182;52.896;6.496;2023-07-24T08:18:35;16.77;;;9.37;;
20042;SDS011;10182;52.896;6.496;2023-07-24T08:23:37;13.50;;;8.53;;
20042;SDS011;10182;52.896;6.496;2023-07-24T08:28:38;17.47;;;9.93;;
20042;SDS011;10182;52.896;6.496;2023-07-24T08:33:43;15.03;;;10.00;;
20042;SDS011;10182;52.896;6.496;2023-07-24T08:38:45;16.40;;;9.87;;
20042;SDS011;10182;52.896;6.496;2023-07-24T08:43:47;11.47;;;8.80;;
20042;SDS011;10182;52.896;6.496;2023-07-24T08:48:51;14.17;;;9.80;;
20042;SDS011;10182;52.896;6.496;2023-07-24T08:53:54;15.73;;;8.50;;
20042;SDS011;10182;52.896;6.496;2023-07-24T08:58:57;13.00;;;9.80;;
20042;SDS011;10182;52.896;6.496;2023-07-24T09:04:00;12.27;;;8.27;;
20042;SDS011;10182;52.896;6.496;2023-07-24T09:09:01;12.00;;;8.50;;
20042;SDS011;10182;52.896;6.496;2023-07-24T09:14:03;13.43;;;7.83;;
20042;SDS011;10182;52.896;6.496;2023-07-24T09:19:15;13.43;;;9.17;;
20042;SDS011;10182;52.896;6.496;2023-07-24T09:24:18;12.00;;;8.27;;
20042;SDS011;10182;52.896;6.496;2023-07-24T09:29:19;11.27;;;8.50;;
20042;SDS011;10182;52.896;6.496;2023-07-24T09:34:23;12.07;;;8.57;;
20042;SDS011;10182;52.896;6.496;2023-07-24T09:39:25;11.37;;;7.70;;
20042;SDS011;10182;52.896;6.496;2023-07-24T09:44:27;12.53;;;8.10;;
20042;SDS011;10182;52.896;6.496;2023-07-24T09:49:31;11.53;;;7.47;;
20042;SDS011;10182;52.896;6.496;2023-07-24T09:54:34;15.27;;;7.50;;
20042;SDS011;10182;52.896;6.496;2023-07-24T09:59:41;10.33;;;6.90;;
20042;SDS011;10182;52.896;6.496;2023-07-24T10:04:44;8.10;;;6.90;;
20042;SDS011;10182;52.896;6.496;2023-07-24T10:09:47;8.37;;;6.80;;
20042;SDS011;10182;52.896;6.496;2023-07-24T10:14:49;10.10;;;6.90;;
20042;SDS011;10182;52.896;6.496;2023-07-24T10:20:01;13.47;;;6.83;;
20042;SDS011;10182;52.896;6.496;2023-07-24T10:25:04;11.93;;;6.87;;
20042;SDS011;10182;52.896;6.496;2023-07-24T10:30:06;11.63;;;8.30;;
20042;SDS011;10182;52.896;6.496;2023-07-24T10:35:10;7.90;;;5.90;;
20042;SDS011;10182;52.896;6.496;2023-07-24T10:40:18;10.13;;;6.63;;
20042;SDS011;10182;52.896;6.496;2023-07-24T10:45:21;8.93;;;6.77;;
20042;SDS011;10182;52.896;6.496;2023-07-24T10:50:24;8.97;;;6.33;;
20042;SDS011;10182;52.896;6.496;2023-07-24T10:55:26;13.73;;;7.27;;
20042;SDS011;10182;52.896;6.496;2023-07-24T11:00:28;13.50;;;8.17;;
20042;SDS011;10182;52.896;6.496;2023-07-24T11:05:31;12.40;;;8.87;;
20042;SDS011;10182;52.896;6.496;2023-07-24T11:10:34;10.67;;;7.43;;
20042;SDS011;10182;52.896;6.496;2023-07-24T11:15:36;9.07;;;7.33;;
20042;SDS011;10182;52.896;6.496;2023-07-24T11:20:42;11.10;;;6.33;;
20042;SDS011;10182;52.896;6.496;2023-07-24T11:25:45;12.57;;;8.47;;
20042;SDS011;10182;52.896;6.496;2023-07-24T11:30:48;12.17;;;7.20;;
20042;SDS011;10182;52.896;6.496;2023-07-24T11:35:53;12.50;;;8.43;;
20042;SDS011;10182;52.896;6.496;2023-07-24T11:40:54;15.97;;;9.37;;
20042;SDS011;10182;52.896;6.496;2023-07-24T11:45:56;11.60;;;9.50;;
20042;SDS011;10182;52.896;6.496;2023-07-24T11:50:59;9.30;;;7.93;;
20042;SDS011;10182;52.896;6.496;2023-07-24T11:56:01;12.60;;;8.83;;
20042;SDS011;10182;52.896;6.496;2023-07-24T12:01:13;10.53;;;7.20;;
20042;SDS011;10182;52.896;6.496;2023-07-24T12:06:17;10.50;;;7.60;;
20042;SDS011;10182;52.896;6.496;2023-07-24T12:11:20;8.57;;;6.13;;
20042;SDS011;10182;52.896;6.496;2023-07-24T12:16:22;10.83;;;7.43;;
20042;SDS011;10182;52.896;6.496;2023-07-24T12:21:25;10.53;;;7.87;;
20042;SDS011;10182;52.896;6.496;2023-07-24T12:26:27;8.90;;;6.33;;
20042;SDS011;10182;52.896;6.496;2023-07-24T12:31:28;10.03;;;7.50;;
20042;SDS011;10182;52.896;6.496;2023-07-24T12:36:31;5.93;;;4.97;;
20042;SDS011;10182;52.896;6.496;2023-07-24T12:41:33;10.33;;;6.00;;
20042;SDS011;10182;52.896;6.496;2023-07-24T12:46:35;9.07;;;5.77;;
20042;SDS011;10182;52.896;6.496;2023-07-24T12:51:38;6.90;;;6.00;;
20042;SDS011;10182;52.896;6.496;2023-07-24T12:56:40;7.17;;;5.60;;
20042;SDS011;10182;52.896;6.496;2023-07-24T13:01:41;7.53;;;5.50;;
20042;SDS011;10182;52.896;6.496;2023-07-24T13:06:45;7.43;;;6.23;;
20042;SDS011;10182;52.896;6.496;2023-07-24T13:11:47;9.40;;;7.27;;
20042;SDS011;10182;52.896;6.496;2023-07-24T13:16:51;6.83;;;6.20;;
20042;SDS011;10182;52.896;6.496;2023-07-24T13:21:54;7.00;;;6.30;;
20042;SDS011;10182;52.896;6.496;2023-07-24T13:26:55;6.57;;;5.97;;
20042;SDS011;10182;52.896;6.496;2023-07-24T13:31:57;8.10;;;6.20;;
20042;SDS011;10182;52.896;6.496;2023-07-24T13:37:00;7.43;;;6.73;;
20042;SDS011;10182;52.896;6.496;2023-07-24T13:42:02;6.80;;;5.97;;
20042;SDS011;10182;52.896;6.496;2023-07-24T13:47:04;6.80;;;6.10;;
20042;SDS011;10182;52.896;6.496;2023-07-24T13:52:07;6.43;;;4.30;;
20042;SDS011;10182;52.896;6.496;2023-07-24T13:57:09;4.77;;;4.27;;
20042;SDS011;10182;52.896;6.496;2023-07-24T14:02:11;3.90;;;3.60;;
20042;SDS011;10182;52.896;6.496;2023-07-24T14:07:14;3.60;;;3.10;;
20042;SDS011;10182;52.896;6.496;2023-07-24T14:12:16;3.00;;;2.80;;
20042;SDS011;10182;52.896;6.496;2023-07-24T14:17:17;3.07;;;2.70;;
20042;SDS011;10182;52.896;6.496;2023-07-24T14:22:20;5.23;;;2.80;;
20042;SDS011;10182;52.896;6.496;2023-07-24T14:27:22;4.53;;;2.50;;
20042;SDS011;10182;52.896;6.496;2023-07-24T14:32:24;5.83;;;2.40;;
20042;SDS011;10182;52.896;6.496;2023-07-24T14:37:27;2.97;;;2.10;;
20042;SDS011;10182;52.896;6.496;2023-07-24T14:42:29;4.33;;;2.00;;
20042;SDS011;10182;52.896;6.496;2023-07-24T14:47:30;2.80;;;2.00;;
20042;SDS011;10182;52.896;6.496;2023-07-24T14:52:33;4.53;;;2.30;;
20042;SDS011;10182;52.896;6.496;2023-07-24T14:57:35;5.03;;;2.23;;
20042;SDS011;10182;52.896;6.496;2023-07-24T15:02:37;7.77;;;2.50;;
20042;SDS011;10182;52.896;6.496;2023-07-24T15:07:40;7.03;;;2.47;;
20042;SDS011;10182;52.896;6.496;2023-07-24T15:12:41;5.17;;;2.20;;
20042;SDS011;10182;52.896;6.496;2023-07-24T15:17:43;5.87;;;2.23;;
20042;SDS011;10182;52.896;6.496;2023-07-24T15:22:46;6.37;;;2.17;;
20042;SDS011;10182;52.896;6.496;2023-07-24T15:27:48;4.80;;;2.13;;
20042;SDS011;10182;52.896;6.496;2023-07-24T15:32:50;5.60;;;1.87;;
20042;SDS011;10182;52.896;6.496;2023-07-24T15:37:53;9.30;;;2.60;;
20042;SDS011;10182;52.896;6.496;2023-07-24T15:42:54;2.07;;;1.77;;
20042;SDS011;10182;52.896;6.496;2023-07-24T15:47:56;2.67;;;1.27;;
20042;SDS011;10182;52.896;6.496;2023-07-24T15:52:59;5.43;;;1.80;;
20042;SDS011;10182;52.896;6.496;2023-07-24T15:58:01;3.27;;;1.67;;
20042;SDS011;10182;52.896;6.496;2023-07-24T16:03:03;3.97;;;1.40;;
20042;SDS011;10182;52.896;6.496;2023-07-24T16:08:06;4.80;;;1.40;;
20042;SDS011;10182;52.896;6.496;2023-07-24T16:13:07;3.70;;;1.60;;
20042;SDS011;10182;52.896;6.496;2023-07-24T16:18:09;5.80;;;1.40;;
20042;SDS011;10182;52.896;6.496;2023-07-24T16:23:12;4.50;;;1.80;;
20042;SDS011;10182;52.896;6.496;2023-07-24T16:28:14;3.33;;;1.73;;
20042;SDS011;10182;52.896;6.496;2023-07-24T16:33:15;2.87;;;1.50;;
20042;SDS011;10182;52.896;6.496;2023-07-24T16:38:19;2.63;;;1.37;;
20042;SDS011;10182;52.896;6.496;2023-07-24T16:43:22;3.80;;;1.20;;
20042;SDS011;10182;52.896;6.496;2023-07-24T16:48:26;4.67;;;1.50;;
20042;SDS011;10182;52.896;6.496;2023-07-24T16:53:29;3.23;;;1.50;;
20042;SDS011;10182;52.896;6.496;2023-07-24T16:58:31;3.00;;;1.30;;
20042;SDS011;10182;52.896;6.496;2023-07-24T17:03:32;5.20;;;1.70;;
20042;SDS011;10182;52.896;6.496;2023-07-24T17:08:35;2.97;;;1.77;;
20042;SDS011;10182;52.896;6.496;2023-07-24T17:13:37;5.73;;;2.00;;
20042;SDS011;10182;52.896;6.496;2023-07-24T17:18:41;3.40;;;1.60;;
20042;SDS011;10182;52.896;6.496;2023-07-24T17:23:44;5.60;;;1.87;;
20042;SDS011;10182;52.896;6.496;2023-07-24T17:28:45;3.77;;;1.63;;
20042;SDS011;10182;52.896;6.496;2023-07-24T17:33:47;4.30;;;1.40;;
20042;SDS011;10182;52.896;6.496;2023-07-24T17:38:51;1.73;;;1.33;;
20042;SDS011;10182;52.896;6.496;2023-07-24T17:43:52;5.47;;;1.77;;
20042;SDS011;10182;52.896;6.496;2023-07-24T17:48:54;3.40;;;1.47;;
20042;SDS011;10182;52.896;6.496;2023-07-24T17:53:58;2.83;;;1.50;;
20042;SDS011;10182;52.896;6.496;2023-07-24T17:58:59;3.37;;;1.70;;
20042;SDS011;10182;52.896;6.496;2023-07-24T18:04:01;2.60;;;1.63;;
20042;SDS011;10182;52.896;6.496;2023-07-24T18:09:04;5.93;;;2.03;;
20042;SDS011;10182;52.896;6.496;2023-07-24T18:14:06;6.73;;;2.17;;
20042;SDS011;10182;52.896;6.496;2023-07-24T18:19:08;3.90;;;1.60;;
20042;SDS011;10182;52.896;6.496;2023-07-24T18:24:11;2.47;;;1.63;;
20042;SDS011;10182;52.896;6.496;2023-07-24T18:29:12;3.77;;;1.60;;
20042;SDS011;10182;52.896;6.496;2023-07-24T18:34:14;7.20;;;2.20;;
20042;SDS011;10182;52.896;6.496;2023-07-24T18:39:17;2.50;;;1.50;;
20042;SDS011;10182;52.896;6.496;2023-07-24T18:44:19;3.87;;;1.47;;
20042;SDS011;10182;52.896;6.496;2023-07-24T18:49:21;4.53;;;1.77;;
20042;SDS011;10182;52.896;6.496;2023-07-24T18:54:24;8.67;;;2.10;;
20042;SDS011;10182;52.896;6.496;2023-07-24T18:59:25;7.73;;;2.23;;
20042;SDS011;10182;52.896;6.496;2023-07-24T19:04:28;6.07;;;2.10;;
20042;SDS011;10182;52.896;6.496;2023-07-24T19:09:31;4.77;;;1.83;;
20042;SDS011;10182;52.896;6.496;2023-07-24T19:14:33;5.33;;;2.20;;
20042;SDS011;10182;52.896;6.496;2023-07-24T19:19:35;4.00;;;1.80;;
20042;SDS011;10182;52.896;6.496;2023-07-24T19:24:39;4.63;;;2.57;;
20042;SDS011;10182;52.896;6.496;2023-07-24T19:29:41;5.83;;;2.40;;
20042;SDS011;10182;52.896;6.496;2023-07-24T19:34:42;5.37;;;2.40;;
20042;SDS011;10182;52.896;6.496;2023-07-24T19:39:46;4.80;;;2.43;;
20042;SDS011;10182;52.896;6.496;2023-07-24T19:44:48;7.93;;;2.50;;
20042;SDS011;10182;52.896;6.496;2023-07-24T19:49:50;5.37;;;2.10;;
20042;SDS011;10182;52.896;6.496;2023-07-24T19:54:53;5.40;;;2.83;;
20042;SDS011;10182;52.896;6.496;2023-07-24T19:59:55;3.63;;;2.30;;
20042;SDS011;10182;52.896;6.496;2023-07-24T20:04:56;5.90;;;2.50;;
20042;SDS011;10182;52.896;6.496;2023-07-24T20:09:59;7.23;;;2.70;;
20042;SDS011;10182;52.896;6.496;2023-07-24T20:15:01;5.00;;;2.90;;
20042;SDS011;10182;52.896;6.496;2023-07-24T20:20:04;9.03;;;3.10;;
20042;SDS011;10182;52.896;6.496;2023-07-24T20:25:09;5.37;;;2.60;;
20042;SDS011;10182;52.896;6.496;2023-07-24T20:30:11;7.77;;;3.20;;
20042;SDS011;10182;52.896;6.496;2023-07-24T20:35:13;7.03;;;2.73;;
20042;SDS011;10182;52.896;6.496;2023-07-24T20:40:17;7.00;;;3.03;;
20042;SDS011;10182;52.896;6.496;2023-07-24T20:45:19;8.00;;;2.87;;
20042;SDS011;10182;52.896;6.496;2023-07-24T20:50:20;9.00;;;3.47;;
20042;SDS011;10182;52.896;6.496;2023-07-24T20:55:24;6.10;;;3.40;;
20042;SDS011;10182;52.896;6.496;2023-07-24T21:00:25;7.67;;;3.53;;
20042;SDS011;10182;52.896;6.496;2023-07-24T21:05:27;7.80;;;4.00;;
20042;SDS011;10182;52.896;6.496;2023-07-24T21:10:30;9.40;;;3.77;;
20042;SDS011;10182;52.896;6.496;2023-07-24T21:15:32;11.50;;;3.60;;
20042;SDS011;10182;52.896;6.496;2023-07-24T21:20:34;9.83;;;3.80;;
20042;SDS011;10182;52.896;6.496;2023-07-24T21:25:37;8.63;;;3.63;;
20042;SDS011;10182;52.896;6.496;2023-07-24T21:30:38;11.97;;;3.97;;
20042;SDS011;10182;52.896;6.496;2023-07-24T21:35:40;6.47;;;3.57;;
20042;SDS011;10182;52.896;6.496;2023-07-24T21:40:43;9.80;;;3.60;;
20042;SDS011;10182;52.896;6.496;2023-07-24T21:45:45;12.10;;;4.40;;
20042;SDS011;10182;52.896;6.496;2023-07-24T21:50:47;8.10;;;3.90;;
20042;SDS011;10182;52.896;6.496;2023-07-24T21:55:52;9.17;;;4.03;;
20042;SDS011;10182;52.896;6.496;2023-07-24T22:00:54;13.40;;;3.87;;
20042;SDS011;10182;52.896;6.496;2023-07-24T22:05:56;10.87;;;4.03;;
20042;SDS011;10182;52.896;6.496;2023-07-24T22:10:59;10.57;;;4.43;;
20042;SDS011;10182;52.896;6.496;2023-07-24T22:16:00;11.40;;;3.63;;
20042;SDS011;10182;52.896;6.496;2023-07-24T22:21:03;10.43;;;4.23;;
20042;SDS011;10182;52.896;6.496;2023-07-24T22:26:06;8.93;;;4.20;;
20042;SDS011;10182;52.896;6.496;2023-07-24T22:31:07;9.70;;;3.80;;
20042;SDS011;10182;52.896;6.496;2023-07-24T22:36:09;9.13;;;4.10;;
20042;SDS011;10182;52.896;6.496;2023-07-24T22:41:12;9.73;;;4.57;;
20042;SDS011;10182;52.896;6.496;2023-07-24T22:46:14;7.07;;;4.33;;
20042;SDS011;10182;52.896;6.496;2023-07-24T22:51:16;10.07;;;4.40;;
20042;SDS011;10182;52.896;6.496;2023-07-24T22:56:19;13.63;;;4.00;;
20042;SDS011;10182;52.896;6.496;2023-07-24T23:01:24;10.07;;;4.43;;
20042;SDS011;10182;52.896;6.496;2023-07-24T23:06:26;8.17;;;3.93;;
20042;SDS011;10182;52.896;6.496;2023-07-24T23:11:30;9.43;;;4.63;;
20042;SDS011;10182;52.896;6.496;2023-07-24T23:16:32;11.93;;;4.80;;
20042;SDS011;10182;52.896;6.496;2023-07-24T23:21:34;7.73;;;4.00;;
20042;SDS011;10182;52.896;6.496;2023-07-24T23:26:37;10.37;;;4.37;;
20042;SDS011;10182;52.896;6.496;2023-07-24T23:31:39;11.53;;;4.93;;
20042;SDS011;10182;52.896;6.496;2023-07-24T23:36:40;6.97;;;4.20;;
20042;SDS011;10182;52.896;6.496;2023-07-24T23:41:43;10.93;;;4.73;;
20042;SDS011;10182;52.896;6.496;2023-07-24T23:46:45;9.37;;;4.77;;
20042;SDS011;10182;52.896;6.496;2023-07-24T23:51:47;10.10;;;4.73;;
20042;SDS011;10182;52.896;6.496;2023-07-24T23:56:50;10.30;;;4.80;;
